Time;durP1;ratioP1;P1;durP2;ratioP2;P2;SDS_P1;SDS_P2;PMS_P1;PMS_P2;Temp;Humidity;BMP_temperature;BMP_pressure;BME280_temperature;BME280_humidity;BME280_pressure;Samples;Min_cycle;Max_cycle;Signal;HPM_P1;HPM_P2
2021/05/15 00:00:58;;;;;;;5.60;2.93;;;;;;;10.67;78.61;99819.21;5155008;56;1136194;-72
2021/05/15 00:06:04;;;;;;;3.30;2.77;;;;;;;10.67;78.73;99818.72;5154575;56;1136291;-71
2021/05/15 00:11:11;;;;;;;2.92;2.55;;;;;;;10.69;78.96;99819.43;5161014;56;1137936;-73
2021/05/15 00:16:16;;;;;;;3.50;3.20;;;;;;;10.65;79.27;99818.51;5130291;56;1136414;-70
2021/05/15 00:21:22;;;;;;;3.77;2.85;;;;;;;10.64;79.19;99815.52;5154295;56;1136924;-72
2021/05/15 00:26:28;;;;;;;3.40;3.10;;;;;;;10.65;79.19;99814.05;5154837;56;1136163;-70
2021/05/15 00:31:34;;;;;;;3.50;2.53;;;;;;;10.67;79.23;99820.53;5154779;56;1136401;-73
2021/05/15 00:36:40;;;;;;;4.40;2.40;;;;;;;10.68;79.36;99824.85;5153528;55;1136453;-73
2021/05/15 00:41:47;;;;;;;4.90;2.90;;;;;;;10.70;79.40;99821.07;5135669;56;1136544;-67
2021/05/15 00:46:52;;;;;;;4.97;2.30;;;;;;;10.70;79.41;99821.55;5101193;56;1136581;-69
2021/05/15 00:51:58;;;;;;;2.47;1.80;;;;;;;10.72;79.63;99819.13;5101408;56;1136427;-70
2021/05/15 00:57:05;;;;;;;3.07;2.40;;;;;;;10.71;79.81;99810.84;5101385;56;1136348;-73
2021/05/15 01:02:13;;;;;;;3.02;2.58;;;;;;;10.74;79.76;99815.03;5111514;56;1136363;-71
2021/05/15 01:07:19;;;;;;;4.57;1.70;;;;;;;10.76;79.60;99821.86;5130172;56;1136317;-71
2021/05/15 01:12:25;;;;;;;5.77;2.23;;;;;;;10.72;80.26;99825.73;5153761;56;1136368;-70
2021/05/15 01:17:31;;;;;;;3.60;2.23;;;;;;;10.73;80.52;99829.22;5153638;56;1136352;-73
2021/05/15 01:22:37;;;;;;;2.27;2.07;;;;;;;10.71;80.22;99824.06;5153505;56;1136204;-71
2021/05/15 01:27:43;;;;;;;2.70;2.50;;;;;;;10.66;80.66;99822.34;5152481;56;1136180;-68
2021/05/15 01:32:49;;;;;;;4.47;2.27;;;;;;;10.55;80.50;99819.30;5153899;56;1136409;-73
2021/05/15 01:37:58;;;;;;;2.43;2.13;;;;;;;10.55;80.50;99819.30;5153563;56;1136303;-74
2021/05/15 01:43:05;;;;;;;2.37;2.17;;;;;;;10.59;80.93;99830.45;5153883;56;1136253;-71
2021/05/15 01:48:16;;;;;;;1.60;1.60;;;;;;;10.56;80.85;99828.91;5153760;56;1136161;-70
2021/05/15 01:53:23;;;;;;;2.40;2.17;;;;;;;10.57;81.05;99831.91;5154104;56;1136193;-76
2021/05/15 01:58:29;;;;;;;3.87;2.30;;;;;;;10.54;81.12;99830.85;5153676;56;1136169;-68
2021/05/15 02:03:37;;;;;;;2.87;2.33;;;;;;;10.54;81.36;99826.88;5153675;56;1136264;-78
2021/05/15 02:08:45;;;;;;;4.30;2.17;;;;;;;10.52;81.20;99828.02;5153677;56;1136308;-70
2021/05/15 02:13:51;;;;;;;2.50;2.30;;;;;;;10.52;81.38;99831.98;5148191;56;1136489;-76
2021/05/15 02:18:57;;;;;;;5.63;2.63;;;;;;;10.54;81.29;99834.81;5153522;56;1136394;-74
2021/05/15 02:24:03;;;;;;;2.17;1.80;;;;;;;10.52;81.60;99834.14;5153365;56;1136686;-75
2021/05/15 02:29:09;;;;;;;2.75;2.27;;;;;;;10.56;81.66;99832.04;5153543;56;1136309;-74
2021/05/15 02:34:15;;;;;;;3.53;2.13;;;;;;;10.55;81.65;99833.01;5153741;56;1141991;-71
2021/05/15 02:39:20;;;;;;;2.55;1.70;;;;;;;10.53;82.06;99837.14;5153792;56;1136602;-69
2021/05/15 02:44:26;;;;;;;2.30;2.10;;;;;;;10.48;82.04;99825.28;5153528;56;1136427;-73
2021/05/15 02:49:32;;;;;;;1.97;1.70;;;;;;;10.44;81.82;99827.36;5153992;56;1136338;-74
2021/05/15 02:54:39;;;;;;;1.70;1.60;;;;;;;10.37;81.96;99826.23;5154254;56;1136219;-70
2021/05/15 02:59:44;;;;;;;1.45;1.35;;;;;;;10.30;82.04;99834.34;5154171;56;1136259;-72
2021/05/15 03:04:50;;;;;;;1.23;1.17;;;;;;;10.26;82.19;99837.38;5154174;56;1136376;-71
2021/05/15 03:09:56;;;;;;;1.33;1.30;;;;;;;10.16;82.12;99854.49;5154270;56;1136376;-72
2021/05/15 03:15:02;;;;;;;2.03;1.93;;;;;;;10.09;82.08;99863.90;5154234;56;1136241;-71
2021/05/15 03:20:11;;;;;;;1.80;1.70;;;;;;;10.05;82.23;99865.16;5154225;56;1136199;-76
2021/05/15 03:25:19;;;;;;;1.10;1.10;;;;;;;10.01;82.09;99863.73;5154190;56;1136257;-69
2021/05/15 03:30:24;;;;;;;1.22;1.22;;;;;;;9.97;82.29;99857.03;5154186;56;1136392;-70
2021/05/15 03:35:31;;;;;;;2.17;1.50;;;;;;;9.92;82.67;99864.53;5154478;56;1134135;-74
2021/05/15 03:40:38;;;;;;;1.67;1.57;;;;;;;9.84;82.38;99863.84;5154645;56;1134169;-74
2021/05/15 03:45:44;;;;;;;1.73;1.63;;;;;;;9.78;82.27;99864.36;5155206;56;1134143;-74
2021/05/15 03:50:54;;;;;;;1.70;1.60;;;;;;;9.66;82.37;99866.23;5155495;56;1134134;-71
2021/05/15 03:56:00;;;;;;;3.03;1.80;;;;;;;9.55;82.81;99870.27;5155050;56;1134291;-70
2021/05/15 04:01:06;;;;;;;3.40;1.77;;;;;;;9.50;83.22;99879.05;5155275;56;1134098;-71
2021/05/15 04:06:12;;;;;;;3.47;2.10;;;;;;;9.40;83.52;99884.74;5155299;56;1134250;-72
2021/05/15 04:11:17;;;;;;;3.10;2.13;;;;;;;9.34;83.33;99884.75;5155416;56;1143077;-72
2021/05/15 04:16:43;;;;;;;2.17;2.08;;;;;;;9.35;83.54;99889.55;5155443;56;1134458;-71
2021/05/15 04:21:34;;;;;;;2.00;1.90;;;;;;;9.37;83.73;99896.38;5152294;56;1134481;-79
2021/05/15 04:26:41;;;;;;;2.97;1.70;;;;;;;9.46;83.77;99904.88;5155390;56;1134338;-76
2021/05/15 04:31:47;;;;;;;2.00;1.90;;;;;;;9.48;83.92;99904.24;5154600;56;1134461;-71
2021/05/15 04:36:53;;;;;;;2.00;1.90;;;;;;;9.48;83.81;99904.73;5155515;56;1134473;-70
2021/05/15 04:41:59;;;;;;;3.30;1.98;;;;;;;9.45;83.89;99912.44;5155338;56;1134445;-75
2021/05/15 04:47:05;;;;;;;1.83;1.57;;;;;;;9.47;84.19;99903.08;5155016;56;1134250;-75
2021/05/15 04:52:11;;;;;;;2.13;2.03;;;;;;;9.50;84.19;99904.13;5155068;56;1134127;-76
2021/05/15 04:57:16;;;;;;;2.20;2.00;;;;;;;9.49;84.06;99905.92;5134946;56;1134116;-74
2021/05/15 05:02:22;;;;;;;4.37;2.93;;;;;;;9.50;83.86;99914.20;5155392;56;1134099;-74
2021/05/15 05:07:28;;;;;;;2.10;2.00;;;;;;;9.53;83.72;99917.91;5155129;56;1141032;-76
2021/05/15 05:12:34;;;;;;;2.37;2.17;;;;;;;9.61;83.71;99921.25;5155077;56;1134294;-70
2021/05/15 05:17:39;;;;;;;3.10;2.80;;;;;;;9.66;83.59;99925.64;5155026;56;1134085;-74
2021/05/15 05:22:45;;;;;;;3.43;2.77;;;;;;;9.71;83.32;99929.23;5154831;56;1134079;-74
2021/05/15 05:27:52;;;;;;;5.93;2.50;;;;;;;9.78;83.26;99931.22;5154104;56;1134164;-71
2021/05/15 05:32:57;;;;;;;2.90;2.60;;;;;;;9.83;83.16;99936.96;5154313;56;1134189;-76
2021/05/15 05:38:04;;;;;;;3.97;3.30;;;;;;;9.97;82.88;99942.88;5155149;56;1134095;-72
2021/05/15 05:43:10;;;;;;;2.97;2.17;;;;;;;10.12;82.47;99942.43;5154448;56;1134203;-76
2021/05/15 05:48:18;;;;;;;6.85;2.72;;;;;;;10.34;82.54;99941.97;5167269;56;1136705;-71
2021/05/15 05:53:24;;;;;;;5.22;3.00;;;;;;;10.50;82.21;99940.52;5140119;56;1136687;-72
2021/05/15 05:58:30;;;;;;;3.25;3.00;;;;;;;10.78;81.89;99946.04;5154869;56;1136788;-72
2021/05/15 06:03:35;;;;;;;3.10;2.30;;;;;;;10.91;80.91;99948.80;5154844;56;1136697;-75
2021/05/15 06:08:41;;;;;;;4.20;2.43;;;;;;;11.03;79.33;99951.32;5154710;56;1136700;-75
2021/05/15 06:13:47;;;;;;;3.23;2.93;;;;;;;11.15;79.41;99960.84;5154645;56;1136618;-74
2021/05/15 06:18:54;;;;;;;1.80;1.70;;;;;;;11.27;78.58;99959.27;5153438;56;1136609;-74
2021/05/15 06:23:59;;;;;;;1.83;1.73;;;;;;;11.49;77.93;99962.61;5154207;56;1136670;-72
2021/05/15 06:29:06;;;;;;;2.63;2.43;;;;;;;11.68;76.65;99956.49;5153532;56;1136720;-73
2021/05/15 06:34:11;;;;;;;3.12;2.67;;;;;;;11.80;75.16;99955.40;5154085;56;1136989;-73
2021/05/15 06:39:17;;;;;;;4.30;2.62;;;;;;;11.88;75.48;99956.88;5142502;56;1138635;-71
2021/05/15 06:44:25;;;;;;;4.85;3.08;;;;;;;12.08;75.71;99958.50;5139416;56;1136904;-72
2021/05/15 06:49:31;;;;;;;2.47;2.27;;;;;;;12.24;74.55;99964.53;5152633;56;1136677;-72
2021/05/15 06:54:37;;;;;;;2.10;1.93;;;;;;;12.37;74.38;99969.55;5153058;56;1136697;-72
2021/05/15 06:59:43;;;;;;;6.07;2.80;;;;;;;12.53;73.26;99963.96;5152908;56;1136713;-74
2021/05/15 07:04:50;;;;;;;3.80;2.47;;;;;;;12.64;73.67;99966.95;5153105;56;1136954;-71
2021/05/15 07:09:56;;;;;;;3.47;2.47;;;;;;;12.87;72.21;99965.57;5153043;56;1136689;-72
2021/05/15 07:15:02;;;;;;;4.53;2.43;;;;;;;13.06;71.43;99963.80;5153138;56;1136923;-71
2021/05/15 07:20:09;;;;;;;3.07;2.60;;;;;;;13.15;71.15;99963.77;5152971;56;1136745;-74
2021/05/15 07:25:16;;;;;;;6.10;2.87;;;;;;;13.34;71.02;99963.66;5152720;56;1136646;-74
2021/05/15 07:30:22;;;;;;;2.62;1.80;;;;;;;13.61;71.08;99969.39;5153326;56;1136721;-74
2021/05/15 07:35:29;;;;;;;2.75;2.42;;;;;;;13.85;69.18;99967.47;5153503;56;1136780;-74
2021/05/15 07:40:35;;;;;;;9.68;3.67;;;;;;;13.90;67.25;99972.33;5153890;56;1136835;-74
2021/05/15 07:45:41;;;;;;;4.40;2.50;;;;;;;13.90;67.49;99969.67;5153739;56;1136657;-73
2021/05/15 07:50:47;;;;;;;10.03;3.03;;;;;;;14.13;67.28;99967.34;5154120;56;1136302;-73
2021/05/15 07:55:54;;;;;;;9.00;2.73;;;;;;;14.25;66.07;99962.10;5154206;56;1138483;-73
2021/05/15 08:01:00;;;;;;;3.87;2.70;;;;;;;14.35;66.02;99959.70;5154547;56;1136411;-76
2021/05/15 08:06:06;;;;;;;4.97;3.10;;;;;;;14.55;64.78;99960.82;5154331;56;1136257;-73
2021/05/15 08:11:12;;;;;;;5.37;3.17;;;;;;;14.55;64.78;99960.82;5154791;56;1136343;-72
2021/05/15 08:16:18;;;;;;;9.93;2.30;;;;;;;14.71;65.65;99967.06;5154516;56;1136384;-72
2021/05/15 08:21:23;;;;;;;3.20;2.90;;;;;;;14.81;64.21;99967.46;5154717;56;1136488;-71
2021/05/15 08:26:29;;;;;;;3.08;2.77;;;;;;;14.91;63.94;99967.66;5144535;56;1136392;-75
2021/05/15 08:31:35;;;;;;;3.42;3.08;;;;;;;15.00;62.78;99977.34;5092510;56;1136400;-73
2021/05/15 08:36:41;;;;;;;4.77;3.70;;;;;;;15.12;63.21;99977.38;5091827;56;1136195;-74
2021/05/15 08:41:47;;;;;;;7.03;3.00;;;;;;;15.19;63.61;99971.42;5092234;56;1136146;-71
2021/05/15 08:46:53;;;;;;;3.73;2.50;;;;;;;15.41;62.72;99970.83;5092638;56;1136188;-72
2021/05/15 08:52:01;;;;;;;5.77;3.53;;;;;;;15.48;60.19;99966.49;5100950;56;1136386;-72
2021/05/15 08:57:07;;;;;;;4.47;3.07;;;;;;;15.52;61.53;99963.84;5100514;56;1136145;-69
2021/05/15 09:02:15;;;;;;;5.07;3.30;;;;;;;15.68;60.38;99971.89;5101062;56;1136181;-70
2021/05/15 09:07:21;;;;;;;3.40;2.43;;;;;;;15.71;60.01;99968.07;5100484;56;1136276;-76
2021/05/15 09:12:27;;;;;;;4.17;2.35;;;;;;;15.92;62.43;99964.89;5101224;56;1136859;-74
2021/05/15 09:17:44;;;;;;;4.78;2.45;;;;;;;16.08;60.83;99963.55;5101175;56;1136399;-74
2021/05/15 09:22:50;;;;;;;5.07;3.50;;;;;;;16.30;60.76;99958.88;5100941;56;1136134;-73
2021/05/15 09:27:56;;;;;;;6.47;2.63;;;;;;;16.50;60.70;99961.48;5107757;56;1136273;-72
2021/05/15 09:33:14;;;;;;;4.70;3.33;;;;;;;16.80;59.19;99953.77;5152662;56;1136168;-75
2021/05/15 09:38:21;;;;;;;3.65;3.33;;;;;;;16.97;59.84;99954.52;5165920;56;1136272;-74
2021/05/15 09:43:26;;;;;;;6.20;3.20;;;;;;;17.08;58.47;99947.47;5142962;56;1136266;-72
2021/05/15 09:48:38;;;;;;;3.72;2.98;;;;;;;17.16;56.92;99940.23;5153296;56;1136419;-72
2021/05/15 09:53:45;;;;;;;5.67;3.00;;;;;;;17.34;57.74;99938.63;5154176;56;1136567;-72
2021/05/15 09:58:52;;;;;;;13.27;3.93;;;;;;;17.51;57.05;99932.67;5154216;56;1136342;-71
2021/05/15 10:04:02;;;;;;;10.50;5.17;;;;;;;17.51;57.81;99934.84;5154156;56;1138777;-74
2021/05/15 10:09:09;;;;;;;7.30;5.00;;;;;;;17.56;56.12;99936.98;5154552;56;1138664;-72
2021/05/15 10:14:14;;;;;;;5.17;3.63;;;;;;;17.74;55.45;99939.37;5157953;56;1136618;-74
2021/05/15 10:19:21;;;;;;;4.00;3.40;;;;;;;17.86;52.71;99929.94;5147069;56;1136708;-75
2021/05/15 10:24:36;;;;;;;9.83;3.70;;;;;;;17.96;55.08;99934.52;5139234;56;1136396;-70
2021/05/15 10:29:45;;;;;;;6.47;4.30;;;;;;;18.02;54.44;99927.12;5144565;56;1136194;-70
2021/05/15 10:35:08;;;;;;;6.77;5.40;;;;;;;18.11;54.27;99930.53;5082613;56;1136175;-74
2021/05/15 10:40:19;;;;;;;13.13;4.25;;;;;;;18.32;55.53;99925.83;5092893;56;1136276;-73
2021/05/15 10:45:37;;;;;;;7.37;3.70;;;;;;;18.49;53.43;99930.79;5092533;56;1138353;-76
2021/05/15 10:50:58;;;;;;;4.83;3.60;;;;;;;18.35;53.17;99921.41;5092013;56;1136390;-74
2021/05/15 10:56:15;;;;;;;3.70;3.00;;;;;;;18.53;50.73;99928.08;5092104;56;1136163;-75
2021/05/15 11:01:24;;;;;;;4.50;3.30;;;;;;;18.72;50.91;99925.38;5083050;56;1136188;-74
2021/05/15 11:06:30;;;;;;;8.15;3.83;;;;;;;19.00;52.18;99909.95;5092361;56;1136680;-74
2021/05/15 11:11:41;;;;;;;8.18;2.92;;;;;;;19.24;51.02;99900.25;5092780;56;1136248;-75
2021/05/15 11:16:47;;;;;;;2.08;1.90;;;;;;;19.38;49.54;99902.55;5092851;56;1136642;-71
2021/05/15 11:21:54;;;;;;;5.03;3.33;;;;;;;19.36;49.67;99898.72;5093009;56;1136205;-72
2021/05/15 11:27:15;;;;;;;2.52;2.00;;;;;;;19.57;50.33;99886.66;5092759;56;1136203;-74
2021/05/15 11:32:21;;;;;;;1.80;1.70;;;;;;;19.95;48.87;99893.09;5092184;56;1136291;-74
2021/05/15 11:37:26;;;;;;;3.75;2.37;;;;;;;20.08;47.82;99885.64;5092754;56;1136723;-76
2021/05/15 11:42:33;;;;;;;3.30;3.00;;;;;;;19.65;47.39;99886.55;5092761;56;1136218;-75
2021/05/15 11:47:39;;;;;;;10.78;4.00;;;;;;;19.48;48.89;99887.80;5092714;56;1136360;-72
2021/05/15 11:52:44;;;;;;;2.98;2.25;;;;;;;19.63;48.84;99873.00;5092359;56;1139133;-73
2021/05/15 11:57:56;;;;;;;4.00;2.20;;;;;;;19.91;50.37;99861.77;5092157;56;1136784;-74
2021/05/15 12:03:05;;;;;;;3.80;2.23;;;;;;;20.20;46.63;99859.90;5092480;56;1136472;-71
2021/05/15 12:08:13;;;;;;;5.35;2.10;;;;;;;20.32;47.19;99851.59;5092387;56;1136337;-75
2021/05/15 12:13:19;;;;;;;2.08;1.70;;;;;;;20.51;46.59;99844.20;5092192;56;1136487;-72
2021/05/15 12:18:26;;;;;;;1.55;1.42;;;;;;;20.52;45.09;99835.11;5092357;56;1136564;-75
2021/05/15 12:23:32;;;;;;;2.33;2.10;;;;;;;20.51;44.97;99829.42;5092286;56;1136349;-72
2021/05/15 12:28:48;;;;;;;5.12;2.12;;;;;;;20.48;46.41;99819.06;5117220;56;1136311;-72
2021/05/15 12:33:57;;;;;;;3.45;2.45;;;;;;;20.59;44.16;99811.80;5091770;56;1136209;-75
2021/05/15 12:39:08;;;;;;;3.05;1.45;;;;;;;20.49;44.15;99814.02;5091912;56;1136488;-77
2021/05/15 12:44:18;;;;;;;1.80;1.42;;;;;;;20.43;45.28;99803.25;5091968;56;1136674;-73
2021/05/15 12:49:24;;;;;;;6.90;1.70;;;;;;;20.56;44.62;99805.48;5095069;56;1136777;-74
2021/05/15 12:54:32;;;;;;;4.03;1.70;;;;;;;20.68;45.35;99793.63;5095988;56;1136871;-73
2021/05/15 12:59:42;;;;;;;1.62;1.32;;;;;;;20.74;44.68;99794.69;5154542;56;1136915;-74
2021/05/15 13:04:57;;;;;;;1.98;1.70;;;;;;;20.70;42.68;99787.54;5154760;56;1136760;-75
2021/05/15 13:10:11;;;;;;;9.58;2.20;;;;;;;20.69;44.25;99786.71;5154709;56;1136906;-77
2021/05/15 13:15:16;;;;;;;9.08;2.22;;;;;;;20.69;44.38;99783.20;5153675;56;1136722;-73
2021/05/15 13:20:21;;;;;;;5.47;1.90;;;;;;;20.68;44.94;99786.91;5154582;55;1136717;-72
2021/05/15 13:25:27;;;;;;;12.00;1.70;;;;;;;20.66;45.16;99781.73;5154838;56;1136698;-75
2021/05/15 13:30:34;;;;;;;3.87;1.55;;;;;;;20.48;43.05;99791.38;5154625;56;1138746;-73
2021/05/15 13:35:40;;;;;;;8.08;1.80;;;;;;;20.23;43.71;99777.61;5154871;56;1136976;-73
2021/05/15 13:40:46;;;;;;;1.85;1.52;;;;;;;20.03;44.01;99789.06;5152755;56;1136680;-75
2021/05/15 13:45:52;;;;;;;8.98;1.37;;;;;;;19.78;46.10;99808.02;5154293;56;1136746;-71
2021/05/15 13:51:02;;;;;;;21.12;3.50;;;;;;;18.97;50.14;99806.13;5154013;56;1136700;-74
2021/05/15 13:56:09;;;;;;;12.65;2.80;;;;;;;18.43;56.37;99865.95;5153708;56;1138566;-77
2021/05/15 14:01:15;;;;;;;3.96;2.22;;;;;;;17.93;58.23;99874.67;5153164;56;1138552;-74
2021/05/15 14:06:20;;;;;;;57.23;39.33;;;;;;;17.55;59.02;99873.32;5153341;56;1136182;-75
2021/05/15 14:11:27;;;;;;;4.80;3.40;;;;;;;17.26;60.45;99860.35;5153028;56;1140618;-75
2021/05/15 14:16:33;;;;;;;6.50;3.37;;;;;;;17.21;61.45;99838.99;5153347;56;1136193;-75
2021/05/15 14:21:38;;;;;;;7.60;3.30;;;;;;;17.35;63.01;99836.55;5153308;56;1136858;-73
2021/05/15 14:26:44;;;;;;;7.33;3.35;;;;;;;17.58;62.72;99822.13;5153517;56;1136265;-74
2021/05/15 14:31:50;;;;;;;3.77;2.57;;;;;;;17.86;64.26;99818.91;5153271;56;1136315;-76
2021/05/15 14:36:56;;;;;;;9.18;2.22;;;;;;;18.06;63.41;99811.98;5151925;56;1136304;-77
2021/05/15 14:42:01;;;;;;;3.12;2.00;;;;;;;18.22;62.45;99810.46;5151906;56;1136287;-75
2021/05/15 14:47:07;;;;;;;2.52;1.65;;;;;;;18.41;63.62;99807.73;5153998;56;1136353;-73
2021/05/15 14:52:13;;;;;;;10.18;5.78;;;;;;;18.44;62.90;99810.04;5153804;56;1136493;-75
2021/05/15 14:57:19;;;;;;;5.03;3.27;;;;;;;18.43;63.21;99799.00;5153748;56;1138272;-73
2021/05/15 15:02:25;;;;;;;6.25;3.52;;;;;;;18.32;62.56;99794.64;5155005;56;1136134;-74
2021/05/15 15:07:32;;;;;;;2.30;2.13;;;;;;;18.22;62.48;99790.39;5155071;56;1136274;-78
2021/05/15 15:12:38;;;;;;;2.58;2.37;;;;;;;18.18;62.65;99783.73;5154938;56;1136372;-74
2021/05/15 15:17:44;;;;;;;3.50;3.05;;;;;;;18.11;63.22;99787.36;5154948;56;1136293;-74
2021/05/15 15:22:50;;;;;;;9.95;5.08;;;;;;;18.06;63.81;99775.03;5154791;56;1136508;-76
2021/05/15 15:27:56;;;;;;;16.53;9.23;;;;;;;18.06;64.29;99768.34;5155085;56;1136767;-76
2021/05/15 15:33:02;;;;;;;41.77;22.87;;;;;;;18.12;64.91;99760.41;5155121;56;1138487;-76
2021/05/15 15:38:09;;;;;;;402.75;214.45;;;;;;;18.16;64.57;99751.00;5154645;56;1140521;-75
2021/05/15 15:43:16;;;;;;;12.13;6.80;;;;;;;18.19;64.69;99746.59;5152922;56;1144653;-73
2021/05/15 15:48:24;;;;;;;18.52;10.26;;;;;;;18.38;64.70;99736.31;5154511;56;1138455;-75
2021/05/15 15:53:30;;;;;;;2.25;1.70;;;;;;;18.52;63.87;99728.23;5154421;56;1140907;-75
2021/05/15 15:58:36;;;;;;;1.45;1.32;;;;;;;18.63;63.38;99721.61;5154536;56;1136802;-73
2021/05/15 16:03:42;;;;;;;2.40;1.50;;;;;;;18.69;62.06;99717.33;5154973;56;1136735;-72
2021/05/15 16:08:48;;;;;;;14.15;3.58;;;;;;;18.67;61.39;99713.49;5155013;56;1136728;-75
2021/05/15 16:13:54;;;;;;;4.56;1.72;;;;;;;18.71;61.74;99704.57;5154471;56;1138815;-75
2021/05/15 16:19:01;;;;;;;7.47;2.20;;;;;;;18.76;60.37;99705.67;5154717;56;1136657;-77
2021/05/15 16:24:13;;;;;;;3.90;1.53;;;;;;;18.77;60.25;99701.97;5154865;56;1136722;-73
2021/05/15 16:29:15;;;;;;;3.43;1.80;;;;;;;18.85;59.92;99694.30;5153973;56;1136759;-77
2021/05/15 16:34:21;;;;;;;6.80;3.70;;;;;;;18.89;59.20;99696.41;5154791;56;1136653;-73
2021/05/15 16:39:27;;;;;;;1.50;1.40;;;;;;;18.86;58.15;99685.23;5154729;56;1136761;-74
2021/05/15 16:44:32;;;;;;;13.25;9.53;;;;;;;18.81;57.70;99690.34;5153329;56;1136793;-76
2021/05/15 16:49:38;;;;;;;10.93;3.42;;;;;;;18.75;56.32;99692.46;5154099;56;1138791;-74
2021/05/15 16:54:45;;;;;;;23.22;10.08;;;;;;;18.71;57.54;99697.88;5154665;56;1139052;-76
2021/05/15 16:59:51;;;;;;;9.13;5.78;;;;;;;18.57;55.41;99700.39;5154289;56;1140870;-76
2021/05/15 17:04:57;;;;;;;7.12;4.05;;;;;;;18.46;54.97;99696.89;5153539;56;1136793;-74
2021/05/15 17:10:03;;;;;;;28.10;14.53;;;;;;;18.37;52.23;99697.17;5153370;56;1136875;-76
2021/05/15 17:15:10;;;;;;;5.17;2.70;;;;;;;18.20;52.21;99703.26;5153162;56;1141005;-74
2021/05/15 17:20:16;;;;;;;6.03;3.87;;;;;;;18.06;51.81;99698.77;5153322;56;1136924;-74
2021/05/15 17:25:22;;;;;;;3.27;1.70;;;;;;;17.91;52.43;99693.44;5153636;56;1136840;-73
2021/05/15 17:30:28;;;;;;;2.83;1.60;;;;;;;17.78;52.91;99695.94;5153422;56;1136734;-75
2021/05/15 17:35:34;;;;;;;6.34;1.90;;;;;;;17.66;53.31;99705.45;5153604;56;1136719;-75
2021/05/15 17:40:40;;;;;;;12.25;7.78;;;;;;;17.59;53.97;99710.66;5153522;56;1136746;-75
2021/05/15 17:45:46;;;;;;;8.80;5.80;;;;;;;17.48;53.92;99711.12;5152790;56;1138776;-75
2021/05/15 17:50:51;;;;;;;6.50;3.50;;;;;;;17.34;54.32;99715.44;5151260;56;1136493;-76
2021/05/15 17:55:58;;;;;;;11.80;4.47;;;;;;;17.20;55.02;99713.57;5150327;56;1136134;-76
2021/05/15 18:01:06;;;;;;;8.43;5.20;;;;;;;17.08;55.51;99713.19;5146919;56;1138292;-77
2021/05/15 18:06:12;;;;;;;7.80;4.60;;;;;;;17.04;56.23;99719.89;5125119;56;1136269;-76
2021/05/15 18:11:19;;;;;;;19.70;3.87;;;;;;;17.03;56.60;99710.71;5134100;56;1136534;-73
2021/05/15 18:16:25;;;;;;;8.65;3.75;;;;;;;17.05;56.92;99715.38;5120942;56;1138352;-74
2021/05/15 18:21:31;;;;;;;8.17;3.93;;;;;;;17.03;57.25;99716.05;5110228;56;1136493;-74
2021/05/15 18:26:37;;;;;;;13.93;7.75;;;;;;;16.97;57.60;99709.58;5124317;56;1136544;-75
2021/05/15 18:31:43;;;;;;;9.70;6.08;;;;;;;16.97;58.06;99718.93;5120095;56;1138770;-75
2021/05/15 18:36:50;;;;;;;28.00;15.60;;;;;;;16.98;58.23;99715.25;5090309;56;1136535;-73
2021/05/15 18:41:56;;;;;;;27.47;14.77;;;;;;;16.92;58.72;99715.98;5089312;56;1140907;-73
2021/05/15 18:47:01;;;;;;;21.30;13.10;;;;;;;16.82;59.29;99718.87;5089672;56;1140629;-76
2021/05/15 18:52:07;;;;;;;13.53;8.63;;;;;;;16.77;59.18;99717.27;5089269;56;1140606;-74
2021/05/15 18:57:14;;;;;;;25.73;12.23;;;;;;;16.70;59.49;99720.31;5089529;56;1138358;-75
2021/05/15 19:02:19;;;;;;;20.73;12.13;;;;;;;16.64;59.78;99725.05;5089031;56;1140378;-74
2021/05/15 19:07:25;;;;;;;32.47;19.53;;;;;;;16.58;60.08;99727.05;5089303;56;1140532;-75
2021/05/15 19:12:31;;;;;;;24.30;14.73;;;;;;;16.52;60.30;99725.90;5076747;56;1144930;-75
2021/05/15 19:17:37;;;;;;;13.22;8.35;;;;;;;16.43;60.47;99724.80;5074435;56;1140533;-76
2021/05/15 19:22:43;;;;;;;16.07;8.45;;;;;;;16.31;60.46;99716.38;5090730;56;1138704;-76
2021/05/15 19:27:49;;;;;;;17.23;9.40;;;;;;;16.24;60.33;99715.39;5092247;56;1138491;-73
2021/05/15 19:32:55;;;;;;;3.30;2.30;;;;;;;16.16;60.40;99710.95;5092369;56;1138505;-74
2021/05/15 19:38:01;;;;;;;14.50;7.43;;;;;;;16.07;61.00;99714.64;5092607;56;1136381;-73
2021/05/15 19:43:07;;;;;;;2.77;2.10;;;;;;;15.95;61.14;99717.87;5092453;56;1138490;-74
2021/05/15 19:48:13;;;;;;;4.63;1.53;;;;;;;15.83;61.17;99718.75;5092606;56;1136429;-73
2021/05/15 19:53:33;;;;;;;2.00;1.77;;;;;;;15.78;61.55;99714.43;5092701;56;1136198;-74
2021/05/15 19:58:37;;;;;;;12.27;4.97;;;;;;;15.71;61.78;99718.30;5091425;56;1136194;-74
2021/05/15 20:03:42;;;;;;;5.55;3.70;;;;;;;15.68;61.89;99716.47;5092588;56;1138884;-73
2021/05/15 20:08:49;;;;;;;4.05;2.30;;;;;;;15.68;62.22;99711.97;5099787;56;1136597;-74
2021/05/15 20:13:55;;;;;;;12.03;6.63;;;;;;;15.70;62.41;99710.47;5101403;56;1136593;-73
2021/05/15 20:19:04;;;;;;;6.33;4.07;;;;;;;15.68;62.61;99699.14;5101290;56;1138747;-73
2021/05/15 20:24:09;;;;;;;8.00;5.07;;;;;;;15.62;62.74;99696.65;5101245;56;1136866;-73
2021/05/15 20:29:15;;;;;;;10.07;5.37;;;;;;;15.56;62.80;99701.34;5101575;56;1136728;-74
2021/05/15 20:34:21;;;;;;;6.40;3.37;;;;;;;15.55;62.75;99698.36;5101332;56;1139005;-73
2021/05/15 20:39:27;;;;;;;36.00;12.17;;;;;;;15.57;63.11;99692.86;5101405;56;1136701;-73
2021/05/15 20:44:33;;;;;;;14.40;9.30;;;;;;;15.45;63.04;99693.66;5101043;56;1140789;-73
2021/05/15 20:49:39;;;;;;;13.90;7.28;;;;;;;15.30;63.64;99684.20;5101136;56;1138749;-74
2021/05/15 20:54:45;;;;;;;20.92;9.73;;;;;;;15.22;63.85;99684.73;5101042;56;1138719;-74
2021/05/15 20:59:51;;;;;;;15.58;7.90;;;;;;;15.27;64.32;99677.91;5101150;56;1138900;-74
2021/05/15 21:04:57;;;;;;;19.30;8.70;;;;;;;15.32;64.65;99676.88;5100962;56;1139046;-74
2021/05/15 21:10:06;;;;;;;17.40;7.27;;;;;;;15.38;65.36;99660.72;5144529;56;1138955;-73
2021/05/15 21:15:12;;;;;;;12.20;6.57;;;;;;;15.40;65.53;99660.89;5163751;56;1138676;-74
2021/05/15 21:20:18;;;;;;;16.63;9.63;;;;;;;15.41;65.89;99659.89;5163759;56;1138717;-75
2021/05/15 21:25:24;;;;;;;49.20;22.43;;;;;;;15.40;65.84;99657.39;5163808;56;1138723;-75
2021/05/15 21:30:32;;;;;;;11.67;6.27;;;;;;;15.42;66.21;99656.72;5163712;56;1141026;-74
2021/05/15 21:35:39;;;;;;;8.30;4.57;;;;;;;15.38;66.75;99660.22;5163784;56;1138995;-74
2021/05/15 21:40:44;;;;;;;10.82;4.28;;;;;;;15.25;66.17;99661.26;5164038;56;1136680;-73
2021/05/15 21:45:50;;;;;;;5.78;4.92;;;;;;;15.19;65.90;99659.76;5163902;56;1139034;-73
2021/05/15 21:50:56;;;;;;;8.70;4.50;;;;;;;15.11;65.64;99664.12;5164024;56;1136941;-73
2021/05/15 21:56:03;;;;;;;9.50;3.70;;;;;;;15.01;65.63;99665.27;5163789;56;1137085;-73
2021/05/15 22:01:08;;;;;;;9.93;4.50;;;;;;;14.96;65.71;99668.46;5163947;56;1136786;-74
2021/05/15 22:06:14;;;;;;;7.30;5.87;;;;;;;14.86;66.12;99677.09;5163968;56;1136837;-74
2021/05/15 22:11:20;;;;;;;16.33;6.37;;;;;;;14.70;66.84;99673.94;5163663;56;1137023;-74
2021/05/15 22:16:26;;;;;;;7.97;5.07;;;;;;;14.57;67.05;99668.78;5163644;56;1138777;-73
2021/05/15 22:21:34;;;;;;;21.70;8.10;;;;;;;14.47;67.14;99673.44;5164040;56;1136918;-74
2021/05/15 22:26:40;;;;;;;28.25;10.48;;;;;;;14.48;67.43;99671.11;5163854;56;1138970;-73
2021/05/15 22:31:46;;;;;;;42.15;13.28;;;;;;;14.60;67.46;99661.80;5163691;56;1140781;-73
2021/05/15 22:36:52;;;;;;;26.68;8.98;;;;;;;14.68;67.29;99659.96;5163524;56;1140899;-74
2021/05/15 22:41:58;;;;;;;8.53;4.93;;;;;;;14.77;67.08;99657.65;5163488;56;1138402;-73
2021/05/15 22:47:04;;;;;;;5.03;3.50;;;;;;;14.81;66.81;99654.16;5163883;56;1136144;-74
2021/05/15 22:52:10;;;;;;;9.77;4.90;;;;;;;14.76;66.80;99651.99;5163790;56;1136195;-73
2021/05/15 22:57:17;;;;;;;4.90;3.70;;;;;;;14.65;66.98;99651.00;5163723;56;1136380;-74
2021/05/15 23:02:25;;;;;;;7.70;5.17;;;;;;;14.62;67.03;99643.34;5163833;56;1136368;-74
2021/05/15 23:07:31;;;;;;;13.80;6.53;;;;;;;14.65;67.23;99637.70;5164437;56;1136411;-75
2021/05/15 23:12:37;;;;;;;15.23;7.10;;;;;;;14.62;67.37;99629.20;5164410;56;1148208;-74
2021/05/15 23:17:43;;;;;;;15.65;7.78;;;;;;;14.60;67.60;99630.70;5164202;56;1138448;-74
2021/05/15 23:22:51;;;;;;;20.88;9.28;;;;;;;14.59;67.74;99626.87;5164511;56;1138442;-73
2021/05/15 23:27:57;;;;;;;23.20;9.20;;;;;;;14.55;67.93;99621.04;5164145;56;1138345;-72